Time;durP1;ratioP1;P1;durP2;ratioP2;P2;SDS_P1;SDS_P2;PMS_P1;PMS_P2;Temp;Humidity;BMP_temperature;BMP_pressure;BME280_temperature;BME280_humidity;BME280_pressure;Samples;Min_cycle;Max_cycle;Signal;HPM_P1;HPM_P2
2023/01/15 00:00:14;;;;;;;22.90;9.30;;;;;;;-3.47;100.00;98857.90;106826;1275;1002982;-69
2023/01/15 00:02:45;;;;;;;21.30;8.70;;;;;;;-3.47;100.00;98834.30;107456;1276;22523;-70
2023/01/15 00:05:17;;;;;;;24.90;8.90;;;;;;;-3.48;100.00;98813.20;107641;1275;25951;-70
2023/01/15 00:07:47;;;;;;;26.10;9.50;;;;;;;-3.48;100.00;98789.11;106794;1275;1003743;-69
2023/01/15 00:10:16;;;;;;;19.90;8.40;;;;;;;-3.49;100.00;98772.79;107547;1269;23038;-69
2023/01/15 00:12:46;;;;;;;22.70;9.30;;;;;;;-3.50;100.00;98754.19;106723;1275;1003207;-69
2023/01/15 00:15:18;;;;;;;23.90;8.80;;;;;;;-3.50;100.00;98738.50;106632;1275;1002521;-70
2023/01/15 00:17:46;;;;;;;21.20;9.50;;;;;;;-3.50;100.00;98724.04;107323;1276;22663;-69
2023/01/15 00:20:14;;;;;;;24.00;9.20;;;;;;;-3.49;100.00;98713.27;107444;1276;22652;-71
2023/01/15 00:22:43;;;;;;;23.00;9.30;;;;;;;-3.48;100.00;98697.50;107504;1275;23864;-70
2023/01/15 00:28:04;;;;;;;21.40;8.60;;;;;;;-3.45;100.00;98655.66;106787;1275;1003071;-69
2023/01/15 00:30:45;;;;;;;17.80;7.80;;;;;;;-3.44;100.00;98649.95;106722;1275;1003363;-70
2023/01/15 00:33:14;;;;;;;21.40;8.90;;;;;;;-3.42;100.00;98627.67;106789;1275;1003054;-71
2023/01/15 00:35:44;;;;;;;20.80;8.60;;;;;;;-3.40;100.00;98622.75;106634;1275;1003710;-70
2023/01/15 00:38:13;;;;;;;20.60;8.40;;;;;;;-3.40;100.00;98610.17;107453;1275;26009;-70
2023/01/15 00:40:45;;;;;;;22.30;8.50;;;;;;;-3.40;100.00;98603.14;107484;1275;26579;-70
2023/01/15 00:43:15;;;;;;;23.30;9.70;;;;;;;-3.40;100.00;98591.72;107270;1275;22454;-71
2023/01/15 00:45:45;;;;;;;21.70;8.00;;;;;;;-3.41;100.00;98583.48;107570;1275;25275;-69
2023/01/15 00:48:13;;;;;;;20.20;8.20;;;;;;;-3.42;100.00;98582.72;106621;1254;1002622;-70
2023/01/15 00:50:40;;;;;;;26.40;9.30;;;;;;;-3.45;100.00;98576.34;107503;1275;22640;-71
2023/01/15 00:53:07;;;;;;;26.60;8.80;;;;;;;-3.46;100.00;98574.56;106735;1275;1003166;-72
2023/01/15 00:55:34;;;;;;;19.20;7.50;;;;;;;-3.47;100.00;98566.36;106773;1275;1002954;-69
2023/01/15 00:58:01;;;;;;;21.00;7.70;;;;;;;-3.48;100.00;98559.36;107546;1275;22564;-69
2023/01/15 01:00:30;;;;;;;19.40;8.40;;;;;;;-3.48;100.00;98551.27;106846;1275;1003199;-70
2023/01/15 01:02:59;;;;;;;21.30;8.10;;;;;;;-3.49;100.00;98542.88;106791;1275;1003031;-68
2023/01/15 01:05:31;;;;;;;20.30;7.80;;;;;;;-3.50;100.00;98534.64;106705;1275;1003042;-69
2023/01/15 01:08:05;;;;;;;16.50;7.10;;;;;;;-3.48;100.00;98528.01;107454;1275;26645;-70
2023/01/15 01:10:34;;;;;;;22.50;8.00;;;;;;;-3.47;100.00;98524.95;106760;1275;1002677;-70
2023/01/15 01:13:02;;;;;;;21.00;8.50;;;;;;;-3.47;100.00;98521.05;107474;1275;22560;-70
2023/01/15 01:15:34;;;;;;;23.60;7.40;;;;;;;-3.46;100.00;98510.92;107415;1275;23845;-70
2023/01/15 01:18:02;;;;;;;21.10;8.30;;;;;;;-3.44;100.00;98507.05;106629;1276;1003539;-68
2023/01/15 01:20:34;;;;;;;17.90;7.30;;;;;;;-3.41;100.00;98500.73;107077;1277;26513;-70
2023/01/15 01:23:10;;;;;;;21.60;8.70;;;;;;;-3.40;100.00;98493.38;107297;1276;24200;-71
2023/01/15 01:25:47;;;;;;;18.10;6.90;;;;;;;-3.41;100.00;98480.61;107518;1269;25434;-68
2023/01/15 01:28:15;;;;;;;17.80;7.80;;;;;;;-3.44;100.00;98486.46;107556;1275;25278;-69
2023/01/15 01:30:49;;;;;;;18.60;7.80;;;;;;;-3.45;100.00;98485.09;106845;1276;1015874;-69
2023/01/15 01:33:21;;;;;;;16.60;7.40;;;;;;;-3.45;100.00;98478.76;107543;1275;22838;-70
2023/01/15 01:35:57;;;;;;;19.80;7.30;;;;;;;-3.46;100.00;98467.06;106674;1273;1003242;-72
2023/01/15 01:38:36;;;;;;;19.60;7.60;;;;;;;-3.48;100.00;98465.08;107528;1275;25430;-68
2023/01/15 01:41:06;;;;;;;14.50;6.10;;;;;;;-3.49;100.00;98468.67;106721;1276;1003411;-66
2023/01/15 01:44:03;;;;;;;17.50;6.60;;;;;;;-3.48;100.00;98466.48;107518;1275;25960;-69
2023/01/15 01:46:37;;;;;;;20.80;7.10;;;;;;;-3.48;100.00;98449.98;107348;1276;22560;-70
2023/01/15 01:49:14;;;;;;;16.20;7.20;;;;;;;-3.50;100.00;98462.05;106688;1275;1003661;-69
2023/01/15 01:52:13;;;;;;;19.10;7.60;;;;;;;-3.51;100.00;98440.45;107426;1275;25439;-70
2023/01/15 01:54:41;;;;;;;19.30;7.10;;;;;;;-3.51;100.00;98448.41;107307;1275;22516;-70
2023/01/15 01:57:09;;;;;;;30.50;8.10;;;;;;;-3.51;100.00;98447.70;106688;1275;1002920;-70
2023/01/15 01:59:47;;;;;;;27.80;8.40;;;;;;;-3.49;100.00;98437.03;106499;1266;1003080;-70
2023/01/15 02:02:24;;;;;;;19.40;7.20;;;;;;;-3.47;100.00;98433.80;107332;1275;22529;-70
2023/01/15 02:04:51;;;;;;;16.90;7.30;;;;;;;-3.43;100.00;98433.67;107185;1276;22471;-71
2023/01/15 02:07:18;;;;;;;17.80;8.30;;;;;;;-3.39;100.00;98430.19;106284;1276;1002975;-71
2023/01/15 02:09:51;;;;;;;21.50;8.70;;;;;;;-3.37;100.00;98432.36;107110;1276;26708;-69
2023/01/15 02:12:24;;;;;;;22.80;8.30;;;;;;;-3.36;100.00;98425.77;107115;1275;24313;-69
2023/01/15 02:15:10;;;;;;;19.80;8.10;;;;;;;-3.36;100.00;98420.80;107176;1275;25297;-70
2023/01/15 02:18:01;;;;;;;23.50;8.10;;;;;;;-3.35;100.00;98412.25;106430;1275;1003293;-69
2023/01/15 02:20:52;;;;;;;18.20;8.50;;;;;;;-3.34;100.00;98405.73;107080;1275;25430;-69
2023/01/15 02:24:11;;;;;;;16.20;7.40;;;;;;;-3.35;100.00;98406.43;106980;1275;22565;-69
2023/01/15 02:27:19;;;;;;;18.00;7.70;;;;;;;-3.36;100.00;98395.63;106685;1276;25362;-70
2023/01/15 02:30:22;;;;;;;14.10;6.40;;;;;;;-3.38;100.00;98386.84;107007;1275;22621;-69
2023/01/15 02:33:18;;;;;;;15.30;6.80;;;;;;;-3.40;100.00;98383.43;106248;1275;1003376;-69
2023/01/15 06:26:53;;;;;;;31.70;11.20;;;;;;;-3.53;100.00;99128.11;105230;1295;1002654;-69
2023/01/15 06:29:20;;;;;;;34.40;11.80;;;;;;;-3.34;100.00;99139.13;107078;1285;216972;-70
2023/01/15 06:31:48;;;;;;;34.60;11.00;;;;;;;-3.28;100.00;99150.89;107482;1286;24343;-70
2023/01/15 06:34:15;;;;;;;35.20;12.00;;;;;;;-3.24;100.00;99152.55;106543;1286;1002958;-70
2023/01/15 06:36:46;;;;;;;36.10;11.20;;;;;;;-3.22;100.00;99152.46;107314;1286;22667;-71
2023/01/15 06:39:13;;;;;;;39.30;13.60;;;;;;;-3.20;100.00;99156.16;107619;1286;25444;-70
2023/01/15 06:47:21;;;;;;;43.60;13.20;;;;;;;-3.14;100.00;99136.04;107489;1286;22934;-70
2023/01/15 06:49:54;;;;;;;38.20;12.80;;;;;;;-3.11;100.00;99126.44;107420;1286;22509;-71
2023/01/15 06:52:26;;;;;;;45.80;15.40;;;;;;;-3.07;100.00;99108.16;106504;1286;1002744;-69
2023/01/15 06:54:53;;;;;;;43.80;14.70;;;;;;;-3.03;100.00;99087.66;107353;1286;24342;-70
2023/01/15 06:57:21;;;;;;;43.90;15.40;;;;;;;-3.00;100.00;99069.81;107386;1286;22543;-68
2023/01/15 06:59:49;;;;;;;41.60;14.30;;;;;;;-2.97;100.00;99050.02;108137;1274;25433;-71
2023/01/15 07:02:16;;;;;;;48.80;16.40;;;;;;;-2.97;100.00;99036.58;108151;1274;23079;-69
2023/01/15 07:04:46;;;;;;;44.60;16.80;;;;;;;-2.97;100.00;99012.06;108320;1274;22642;-70
2023/01/15 07:07:15;;;;;;;28.80;11.50;;;;;;;-3.01;100.00;98993.30;107508;1274;1003752;-71
2023/01/15 07:09:44;;;;;;;29.80;10.70;;;;;;;-3.01;100.00;98969.73;107480;1274;1003100;-68
2023/01/15 07:12:12;;;;;;;25.60;9.30;;;;;;;-2.99;100.00;98955.62;108294;1274;22764;-69
2023/01/15 07:14:40;;;;;;;24.80;9.50;;;;;;;-2.96;100.00;98935.70;107446;1274;1002534;-71
2023/01/15 07:17:08;;;;;;;30.40;8.70;;;;;;;-2.94;100.00;98916.33;107954;1274;22589;-72
2023/01/15 07:19:35;;;;;;;23.80;8.40;;;;;;;-2.92;100.00;98884.02;108014;1274;22550;-68
2023/01/15 07:22:05;;;;;;;27.40;9.20;;;;;;;-2.90;100.00;98848.81;108214;1268;25309;-70
2023/01/15 07:24:32;;;;;;;29.10;10.10;;;;;;;-2.90;100.00;98813.85;107476;1274;1003170;-69
2023/01/15 07:27:00;;;;;;;23.30;8.90;;;;;;;-2.91;100.00;98769.34;108160;1274;26005;-69
2023/01/15 07:29:27;;;;;;;35.30;12.00;;;;;;;-2.95;100.00;98720.45;108352;1274;25438;-70
2023/01/15 07:31:57;;;;;;;33.50;10.70;;;;;;;-2.97;100.00;98668.77;108796;1274;22562;-68
2023/01/15 07:34:24;;;;;;;29.40;10.00;;;;;;;-2.97;100.00;98621.31;108285;1274;24160;-70
2023/01/15 07:36:52;;;;;;;28.20;10.00;;;;;;;-2.92;100.00;98574.38;108215;1256;22522;-70
2023/01/15 07:39:19;;;;;;;28.80;10.50;;;;;;;-2.89;100.00;98526.52;108281;1274;22965;-69
2023/01/15 07:50:21;;;;;;;24.80;8.90;;;;;;;-2.85;100.00;98343.16;107317;1274;1003093;-70
2023/01/15 07:52:48;;;;;;;23.80;8.50;;;;;;;-2.80;100.00;98317.35;108164;1274;22802;-69
2023/01/15 07:55:19;;;;;;;24.10;8.60;;;;;;;-2.77;100.00;98293.15;108131;1274;22639;-70
2023/01/15 07:57:47;;;;;;;29.10;9.80;;;;;;;-2.75;100.00;98272.13;108047;1274;22543;-70
2023/01/15 08:00:18;;;;;;;25.40;9.20;;;;;;;-2.75;100.00;98247.40;108339;1275;24362;-70
2023/01/15 08:02:49;;;;;;;25.40;10.20;;;;;;;-2.77;100.00;98226.09;108317;1274;22815;-72
2023/01/15 08:05:17;;;;;;;34.80;11.40;;;;;;;-2.78;100.00;98205.88;107438;1274;1002880;-69
2023/01/15 08:07:45;;;;;;;30.80;9.80;;;;;;;-2.75;100.00;98187.78;107451;1274;1004685;-69
2023/01/15 08:10:12;;;;;;;29.60;10.20;;;;;;;-2.69;100.00;98170.90;107526;1274;1002905;-70
2023/01/15 08:15:37;;;;;;;32.30;11.10;;;;;;;-2.61;100.00;98114.61;107383;1274;1003472;-70
2023/01/15 08:18:05;;;;;;;33.80;10.30;;;;;;;-2.56;100.00;98098.82;108205;1274;22527;-71
2023/01/15 08:20:33;;;;;;;34.70;13.50;;;;;;;-2.51;100.00;98088.90;108206;1274;24222;-70
2023/01/15 08:23:01;;;;;;;36.50;13.50;;;;;;;-2.47;100.00;98071.77;107999;1274;26595;-70
2023/01/15 08:25:28;;;;;;;34.20;10.60;;;;;;;-2.43;100.00;98059.30;108141;1274;22744;-69
2023/01/15 08:28:00;;;;;;;24.50;9.80;;;;;;;-2.41;100.00;98042.13;107409;1263;1003512;-68
2023/01/15 08:30:27;;;;;;;29.90;10.20;;;;;;;-2.40;100.00;98028.26;108181;1274;23536;-70
2023/01/15 08:32:59;;;;;;;27.00;10.40;;;;;;;-2.38;100.00;98021.07;108172;1274;22763;-70
2023/01/15 08:35:26;;;;;;;28.40;10.70;;;;;;;-2.38;100.00;98007.42;108183;1274;22526;-69
2023/01/15 08:37:54;;;;;;;34.50;10.20;;;;;;;-2.42;100.00;98003.71;108074;1274;22476;-70
2023/01/15 08:40:22;;;;;;;27.50;9.90;;;;;;;-2.44;100.00;97992.81;108136;1274;22521;-70
2023/01/15 08:42:49;;;;;;;25.20;9.70;;;;;;;-2.46;100.00;97982.75;107371;1274;1015405;-72
2023/01/15 08:45:16;;;;;;;25.90;9.80;;;;;;;-2.46;100.00;97975.35;108185;1275;22517;-69
2023/01/15 08:47:44;;;;;;;22.10;8.20;;;;;;;-2.45;100.00;97964.91;108083;1275;23904;-69
2023/01/15 08:50:11;;;;;;;23.80;8.60;;;;;;;-2.44;100.00;97955.61;108225;1274;22468;-70
2023/01/15 08:52:39;;;;;;;31.60;10.30;;;;;;;-2.43;100.00;97944.23;108179;1274;22552;-70
2023/01/15 08:55:07;;;;;;;26.80;11.10;;;;;;;-2.43;100.00;97936.65;108097;1275;22537;-70
2023/01/15 08:57:34;;;;;;;30.90;11.20;;;;;;;-2.44;100.00;97931.11;107794;1274;22594;-69
2023/01/15 09:00:02;;;;;;;29.60;11.40;;;;;;;-2.46;100.00;97927.52;108177;1274;26639;-71
2023/01/15 09:02:30;;;;;;;32.30;11.70;;;;;;;-2.42;100.00;97916.27;108185;1274;22530;-71
2023/01/15 09:04:57;;;;;;;29.90;11.90;;;;;;;-2.38;100.00;97910.96;108114;1274;22588;-71
2023/01/15 09:07:26;;;;;;;27.50;10.30;;;;;;;-2.34;100.00;97899.23;108035;1274;25890;-72
2023/01/15 09:09:53;;;;;;;24.10;9.80;;;;;;;-2.32;100.00;97895.85;108231;1274;23839;-70
2023/01/15 09:12:23;;;;;;;21.90;9.60;;;;;;;-2.31;100.00;97895.59;107431;1274;1003158;-70
2023/01/15 09:14:51;;;;;;;26.40;10.60;;;;;;;-2.32;100.00;97890.73;107590;1274;1002654;-70
2023/01/15 09:17:28;;;;;;;28.70;10.80;;;;;;;-2.32;100.00;97880.69;107980;1274;25423;-69
2023/01/15 09:19:55;;;;;;;25.10;9.60;;;;;;;-2.31;100.00;97880.80;107429;1274;1002681;-71
2023/01/15 09:22:24;;;;;;;24.90;10.20;;;;;;;-2.31;100.00;97876.56;108129;1274;22671;-69
2023/01/15 09:24:51;;;;;;;27.60;10.90;;;;;;;-2.34;100.00;97868.57;107371;1274;1003053;-69
2023/01/15 09:27:19;;;;;;;27.80;10.30;;;;;;;-2.37;100.00;97868.31;107493;1267;1002947;-70
2023/01/15 09:29:46;;;;;;;31.10;11.00;;;;;;;-2.36;100.00;97870.36;108089;1274;22582;-69
2023/01/15 09:32:13;;;;;;;28.00;11.30;;;;;;;-2.33;100.00;97865.14;107999;1274;22483;-70
2023/01/15 09:34:41;;;;;;;28.60;10.70;;;;;;;-2.30;100.00;97861.84;107410;1274;1002586;-71
2023/01/15 09:37:09;;;;;;;28.50;10.80;;;;;;;-2.25;100.00;97854.17;108108;1274;22534;-70
2023/01/15 09:39:37;;;;;;;29.60;11.90;;;;;;;-2.21;100.00;97852.15;107480;1274;1003886;-72
2023/01/15 09:42:17;;;;;;;24.40;10.50;;;;;;;-2.15;100.00;97844.91;108187;1274;22493;-70
2023/01/15 09:45:06;;;;;;;28.00;11.40;;;;;;;-2.12;100.00;97837.70;107705;1274;22536;-70
2023/01/15 09:47:53;;;;;;;22.70;9.50;;;;;;;-2.11;100.00;97836.40;107322;1274;24270;-71
2023/01/15 09:50:34;;;;;;;28.00;9.90;;;;;;;-2.10;100.00;97829.89;106818;1274;1002667;-69
2023/01/15 09:53:35;;;;;;;26.70;10.10;;;;;;;-2.08;100.00;97833.11;107570;1274;22765;-72
2023/01/15 09:56:03;;;;;;;23.60;9.80;;;;;;;-2.05;100.00;97820.66;107489;1274;23297;-70
2023/01/15 09:58:38;;;;;;;25.00;10.40;;;;;;;-2.06;100.00;97837.02;107491;1274;24196;-68
2023/01/15 10:01:06;;;;;;;29.20;10.50;;;;;;;-2.08;100.00;97835.79;107543;1274;24234;-67
2023/01/15 10:03:45;;;;;;;23.90;9.80;;;;;;;-2.07;100.00;97836.23;107494;1274;23899;-69
2023/01/15 10:06:24;;;;;;;27.40;11.00;;;;;;;-2.08;100.00;97832.23;107452;1274;23897;-72
2023/01/15 10:09:05;;;;;;;29.20;10.50;;;;;;;-2.12;100.00;97840.23;107510;1274;22528;-71
2023/01/15 10:14:30;;;;;;;25.40;10.10;;;;;;;-2.18;100.00;97833.39;107411;1274;22549;-70
2023/01/15 10:16:58;;;;;;;28.50;10.90;;;;;;;-2.15;100.00;97848.12;107478;1274;24216;-70
2023/01/15 10:19:25;;;;;;;28.00;11.90;;;;;;;-2.11;100.00;97848.72;107303;1274;22516;-69
2023/01/15 10:22:20;;;;;;;22.10;10.30;;;;;;;-2.04;100.00;97828.48;107481;1275;23125;-70
2023/01/15 10:24:55;;;;;;;21.40;10.10;;;;;;;-1.99;100.00;97828.20;106877;1274;1002970;-69
2023/01/15 10:27:24;;;;;;;28.00;12.30;;;;;;;-1.94;100.00;97824.55;107731;1275;24324;-70
2023/01/15 10:29:56;;;;;;;27.10;10.40;;;;;;;-1.92;100.00;97830.35;107505;1275;22547;-69
2023/01/15 10:32:37;;;;;;;26.60;11.80;;;;;;;-1.89;100.00;97826.92;107542;1275;22831;-73
2023/01/15 10:35:30;;;;;;;29.00;12.60;;;;;;;-1.86;100.00;97819.59;107338;1275;22536;-71
2023/01/15 10:38:25;;;;;;;23.40;11.80;;;;;;;-1.87;100.00;97809.56;107291;1275;25445;-70
2023/01/15 10:40:52;;;;;;;23.80;10.40;;;;;;;-1.87;100.00;97807.70;107389;1275;22640;-70
2023/01/15 10:43:45;;;;;;;25.00;10.30;;;;;;;-1.88;100.00;97819.18;107422;1275;22522;-71
2023/01/15 10:46:15;;;;;;;26.10;10.30;;;;;;;-1.86;100.00;97810.07;107276;1275;25426;-69
2023/01/15 10:48:55;;;;;;;21.60;10.50;;;;;;;-1.85;100.00;97818.79;107324;1275;22776;-70
2023/01/15 10:51:44;;;;;;;24.50;10.50;;;;;;;-1.86;100.00;97819.55;106738;1275;1002521;-69
2023/01/15 10:54:28;;;;;;;27.60;10.40;;;;;;;-1.85;100.00;97816.89;107419;1275;25303;-72
2023/01/15 10:57:14;;;;;;;28.40;12.30;;;;;;;-1.87;100.00;97817.56;107305;1275;23160;-69
2023/01/15 10:59:56;;;;;;;27.00;11.60;;;;;;;-1.91;100.00;97825.70;107291;1275;23859;-70
2023/01/15 11:02:41;;;;;;;25.00;10.30;;;;;;;-1.92;100.00;97824.40;107435;1275;22532;-72
2023/01/15 11:05:15;;;;;;;23.70;11.30;;;;;;;-1.93;100.00;97824.65;106614;1275;1003046;-71
2023/01/15 11:07:50;;;;;;;21.70;10.20;;;;;;;-2.00;100.00;97834.43;107342;1275;22576;-70
2023/01/15 11:10:38;;;;;;;25.30;11.30;;;;;;;-2.04;100.00;97834.38;107339;1275;22548;-71
2023/01/15 11:19:40;;;;;;;21.20;9.70;;;;;;;-2.01;100.00;97831.98;107670;1275;25548;-70
2023/01/15 11:22:08;;;;;;;28.00;10.00;;;;;;;-2.01;100.00;97838.95;107426;1275;22520;-70
2023/01/15 11:24:49;;;;;;;24.50;9.90;;;;;;;-2.01;100.00;97854.55;106689;1275;1003556;-70
2023/01/15 11:27:28;;;;;;;25.70;10.80;;;;;;;-2.02;100.00;97852.88;106922;1274;1003722;-70
2023/01/15 11:30:00;;;;;;;29.60;11.70;;;;;;;-2.01;100.00;97860.70;107467;1274;24160;-71
2023/01/15 11:32:33;;;;;;;26.50;10.90;;;;;;;-1.99;100.00;97859.67;107428;1274;22540;-69
2023/01/15 11:35:14;;;;;;;23.60;10.50;;;;;;;-2.02;100.00;97867.85;107476;1274;22701;-70
2023/01/15 11:37:41;;;;;;;24.80;10.90;;;;;;;-2.03;100.00;97874.35;107551;1274;22527;-69
2023/01/15 11:40:22;;;;;;;20.50;9.80;;;;;;;-2.03;100.00;97883.65;107481;1274;22527;-71
2023/01/15 11:51:29;;;;;;;23.30;10.10;;;;;;;-2.00;100.00;97889.77;107463;1274;23888;-71
2023/01/15 11:54:02;;;;;;;25.30;10.30;;;;;;;-2.05;100.00;97910.66;107675;1274;22572;-71
2023/01/15 11:56:30;;;;;;;22.90;10.30;;;;;;;-2.07;100.00;97920.24;107541;1274;22524;-70
2023/01/15 11:59:01;;;;;;;24.80;10.90;;;;;;;-2.09;100.00;97926.09;107450;1274;24355;-71
2023/01/15 12:01:30;;;;;;;34.30;11.80;;;;;;;-2.11;100.00;97930.52;107500;1274;22636;-69
2023/01/15 12:03:59;;;;;;;24.80;11.00;;;;;;;-2.11;100.00;97937.23;107382;1274;25513;-71
2023/01/15 12:06:27;;;;;;;27.60;10.60;;;;;;;-2.10;100.00;97941.48;106743;1274;1002881;-71
2023/01/15 12:09:25;;;;;;;24.40;11.00;;;;;;;-2.07;100.00;97952.74;107353;1275;22539;-71
2023/01/15 12:12:05;;;;;;;25.70;10.60;;;;;;;-2.11;100.00;97948.67;107067;1274;25942;-68
2023/01/15 12:14:39;;;;;;;24.90;11.20;;;;;;;-2.17;100.00;97967.98;107344;1260;25456;-71
2023/01/15 12:17:36;;;;;;;25.20;10.70;;;;;;;-2.21;100.00;97979.80;107481;1274;22700;-70
2023/01/15 12:20:23;;;;;;;27.30;10.80;;;;;;;-2.25;100.00;97985.31;107377;1274;25437;-69
2023/01/15 12:23:08;;;;;;;26.80;11.40;;;;;;;-2.29;100.00;98001.48;107516;1274;25236;-71
2023/01/15 12:25:48;;;;;;;25.80;10.70;;;;;;;-2.30;100.00;98010.11;106674;1274;1003012;-69
2023/01/15 12:28:33;;;;;;;25.70;11.20;;;;;;;-2.30;100.00;98019.79;106811;1274;1003200;-70
2023/01/15 12:31:02;;;;;;;26.90;9.40;;;;;;;-2.29;100.00;98021.44;107498;1274;22565;-69
2023/01/15 12:33:52;;;;;;;29.20;11.20;;;;;;;-2.26;100.00;98034.85;107393;1274;22531;-69
2023/01/15 12:36:25;;;;;;;26.20;10.00;;;;;;;-2.24;100.00;98033.00;106761;1274;1003161;-72
2023/01/15 12:38:52;;;;;;;28.10;11.90;;;;;;;-2.24;100.00;98045.20;107422;1274;22529;-71
2023/01/15 12:44:59;;;;;;;33.30;11.20;;;;;;;-2.30;100.00;98053.29;107324;1274;25429;-69
2023/01/15 13:00:17;;;;;;;28.50;11.30;;;;;;;-2.00;100.00;97899.03;106771;1296;558006;-79
2023/01/15 13:02:51;;;;;;;28.60;12.30;;;;;;;-1.97;100.00;97806.80;108310;1282;204009;-80
2023/01/15 13:05:21;;;;;;;25.30;9.20;;;;;;;-2.03;100.00;97873.08;108341;1282;26051;-81
2023/01/15 13:07:59;;;;;;;26.20;10.60;;;;;;;-2.08;100.00;97915.25;108204;1276;1002591;-81
2023/01/15 13:10:33;;;;;;;26.90;10.40;;;;;;;-2.11;100.00;97943.69;107991;1276;1002401;-81
2023/01/15 13:13:25;;;;;;;28.80;11.10;;;;;;;-2.14;100.00;97973.88;108072;1276;1002846;-80
2023/01/15 13:16:02;;;;;;;24.20;10.20;;;;;;;-2.16;100.00;97988.32;108802;1276;22548;-80
2023/01/15 13:19:08;;;;;;;26.50;11.40;;;;;;;-2.13;100.00;98013.48;108869;1254;22554;-80
2023/01/15 13:21:35;;;;;;;26.60;11.10;;;;;;;-2.14;100.00;98023.45;108774;1276;22669;-80
2023/01/15 13:24:06;;;;;;;31.60;12.50;;;;;;;-2.17;100.00;98053.36;108772;1276;24164;-80
2023/01/15 13:26:53;;;;;;;28.20;11.70;;;;;;;-2.19;100.00;98067.38;108076;1276;1003217;-81
2023/01/15 13:29:44;;;;;;;28.00;11.50;;;;;;;-2.21;100.00;98074.20;108736;1276;24375;-80
2023/01/15 13:32:17;;;;;;;26.90;10.40;;;;;;;-2.24;100.00;98088.23;108029;1276;1002741;-80
2023/01/15 13:34:46;;;;;;;30.20;11.50;;;;;;;-2.26;100.00;98104.19;108829;1276;22473;-80
2023/01/15 13:37:17;;;;;;;29.90;11.20;;;;;;;-2.29;100.00;98114.98;108062;1276;1003293;-80
2023/01/15 13:39:44;;;;;;;32.00;12.10;;;;;;;-2.31;100.00;98125.70;108647;1276;22531;-81
2023/01/15 13:42:34;;;;;;;30.60;11.60;;;;;;;-2.30;100.00;98129.55;108860;1276;25436;-80
2023/01/15 13:45:41;;;;;;;33.70;13.00;;;;;;;-2.29;100.00;98127.89;108201;1276;22563;-81
2023/01/15 13:48:17;;;;;;;33.30;12.10;;;;;;;-2.33;100.00;98130.00;107543;1276;1003732;-81
2023/01/15 13:50:56;;;;;;;31.70;11.70;;;;;;;-2.38;100.00;98153.58;108110;1276;22613;-81
2023/01/15 13:53:37;;;;;;;29.40;10.80;;;;;;;-2.42;100.00;98162.75;108141;1276;25592;-81
2023/01/15 13:56:07;;;;;;;26.40;10.20;;;;;;;-2.47;100.00;98176.61;108164;1276;24218;-79
2023/01/15 13:58:50;;;;;;;29.40;10.90;;;;;;;-2.53;100.00;98189.08;108106;1276;25437;-80
2023/01/15 14:01:21;;;;;;;24.10;10.00;;;;;;;-2.58;100.00;98196.23;107967;1276;25437;-80
2023/01/15 14:04:11;;;;;;;27.20;11.00;;;;;;;-2.62;100.00;98209.98;107346;1276;1003407;-81
2023/01/15 14:06:39;;;;;;;31.40;11.40;;;;;;;-2.64;100.00;98205.09;106884;1276;1003572;-80
2023/01/15 14:09:13;;;;;;;34.80;11.60;;;;;;;-2.65;100.00;98221.92;106948;1276;1003971;-79
2023/01/15 14:11:47;;;;;;;29.90;12.20;;;;;;;-2.65;100.00;98227.08;107887;1276;25453;-80
2023/01/15 14:14:14;;;;;;;33.50;12.00;;;;;;;-2.67;100.00;98233.17;107725;1276;25929;-80
2023/01/15 14:16:51;;;;;;;29.80;11.60;;;;;;;-2.70;100.00;98236.60;107478;1276;23927;-78
2023/01/15 18:17:30;;;;;;;45.80;17.10;;;;;;;-2.95;100.00;98900.50;106124;1294;557359;-70
2023/01/15 18:19:57;;;;;;;40.20;14.30;;;;;;;-2.78;100.00;98920.55;107050;1285;655386;-70
2023/01/15 18:22:25;;;;;;;44.00;14.90;;;;;;;-2.74;100.00;98926.46;106686;1285;1002630;-70
2023/01/15 18:24:55;;;;;;;59.60;17.60;;;;;;;-2.72;100.00;98928.62;107662;1285;23854;-71
2023/01/15 18:27:28;;;;;;;51.00;16.20;;;;;;;-2.70;100.00;98931.45;107396;1285;22563;-72
2023/01/15 18:29:58;;;;;;;51.10;15.10;;;;;;;-2.68;100.00;98926.87;107579;1285;22591;-70
2023/01/15 18:32:29;;;;;;;48.10;15.90;;;;;;;-2.66;100.00;98922.20;107545;1285;22560;-70
2023/01/15 18:34:57;;;;;;;49.60;15.60;;;;;;;-2.69;100.00;98923.23;107636;1278;24323;-71
2023/01/15 18:37:24;;;;;;;50.60;16.30;;;;;;;-2.69;100.00;98919.77;106973;1278;25428;-70
2023/01/15 18:39:51;;;;;;;49.00;15.60;;;;;;;-2.69;100.00;98914.83;107122;1278;22545;-70
2023/01/15 18:47:51;;;;;;;39.30;14.30;;;;;;;-2.69;100.00;98863.08;107237;1278;24205;-70
2023/01/15 18:50:19;;;;;;;46.10;18.60;;;;;;;-2.69;100.00;98851.48;106984;1278;24218;-69
2023/01/15 18:52:49;;;;;;;42.90;15.90;;;;;;;-2.70;100.00;98826.83;107160;1278;25306;-69
2023/01/15 18:55:20;;;;;;;39.90;15.30;;;;;;;-2.71;100.00;98797.95;106534;1278;1002563;-72
2023/01/15 18:57:47;;;;;;;38.70;15.00;;;;;;;-2.71;100.00;98776.29;107168;1278;22746;-70
2023/01/15 19:00:16;;;;;;;42.40;14.80;;;;;;;-2.72;100.00;98747.39;106962;1278;25961;-70
2023/01/15 19:02:44;;;;;;;42.70;15.10;;;;;;;-2.71;100.00;98722.82;107104;1278;25487;-69
2023/01/15 19:05:14;;;;;;;40.10;15.20;;;;;;;-2.70;100.00;98695.60;107014;1278;25483;-68
2023/01/15 19:07:42;;;;;;;38.60;14.20;;;;;;;-2.70;100.00;98670.00;107099;1278;24254;-69
2023/01/15 19:10:11;;;;;;;45.10;13.80;;;;;;;-2.72;100.00;98646.16;106473;1278;1002928;-70
2023/01/15 19:12:39;;;;;;;40.20;13.50;;;;;;;-2.72;100.00;98619.18;107320;1276;24306;-69
2023/01/15 19:20:38;;;;;;;32.20;11.90;;;;;;;-2.76;100.00;98487.04;107175;1277;22558;-68
2023/01/15 19:23:06;;;;;;;36.70;12.70;;;;;;;-2.77;100.00;98436.16;107160;1277;25252;-70
2023/01/15 19:25:39;;;;;;;34.40;11.60;;;;;;;-2.77;100.00;98378.50;107289;1278;22650;-69
2023/01/15 19:28:08;;;;;;;34.30;11.00;;;;;;;-2.78;100.00;98311.86;106245;1277;1003172;-70
2023/01/15 19:30:37;;;;;;;43.50;13.40;;;;;;;-2.78;100.00;98242.59;107370;1277;24075;-68
2023/01/15 19:33:05;;;;;;;34.70;13.00;;;;;;;-2.77;100.00;98178.52;107170;1277;22980;-70
2023/01/15 19:35:34;;;;;;;36.80;13.20;;;;;;;-2.76;100.00;98117.54;106612;1277;1002918;-69
2023/01/15 19:38:06;;;;;;;35.90;11.40;;;;;;;-2.74;100.00;98065.00;107209;1277;22652;-69
2023/01/15 19:40:39;;;;;;;33.70;12.20;;;;;;;-2.74;100.00;98006.66;107128;1277;22548;-70
2023/01/15 19:54:54;;;;;;;32.20;11.30;;;;;;;-2.78;100.00;97812.13;107155;1277;25431;-68
2023/01/15 19:57:01;;;;;;;30.20;9.80;;;;;;;-2.85;100.00;97794.01;107080;1277;22823;-70
2023/01/15 19:59:29;;;;;;;30.60;10.90;;;;;;;-2.87;100.00;97788.59;107305;1277;25303;-71
2023/01/15 20:01:56;;;;;;;29.10;10.50;;;;;;;-2.89;100.00;97773.06;106568;1278;1002933;-69
2023/01/15 20:04:23;;;;;;;26.90;9.50;;;;;;;-2.92;100.00;97759.41;107034;1277;22690;-69
2023/01/15 20:06:50;;;;;;;33.60;9.50;;;;;;;-2.92;100.00;97752.70;106520;1277;1003028;-71
2023/01/15 20:09:20;;;;;;;29.30;9.40;;;;;;;-2.92;100.00;97746.00;106438;1277;1002890;-69
2023/01/15 20:14:33;;;;;;;29.60;10.50;;;;;;;-2.94;100.00;97716.42;106437;1277;1003806;-72
2023/01/15 20:17:00;;;;;;;31.30;9.60;;;;;;;-2.96;100.00;97720.13;107063;1279;22721;-70
2023/01/15 20:19:28;;;;;;;30.90;10.00;;;;;;;-2.97;100.00;97715.35;106450;1278;1003546;-68
2023/01/15 20:21:55;;;;;;;26.30;9.80;;;;;;;-2.97;100.00;97700.64;107170;1278;22536;-71
2023/01/15 20:24:22;;;;;;;21.50;8.20;;;;;;;-2.95;100.00;97693.30;107339;1278;24025;-68
2023/01/15 20:26:49;;;;;;;30.60;10.00;;;;;;;-2.94;100.00;97688.40;107105;1278;22772;-69
2023/01/15 20:29:17;;;;;;;29.00;10.40;;;;;;;-2.95;100.00;97685.10;107319;1277;26580;-72
2023/01/15 20:31:45;;;;;;;27.90;10.00;;;;;;;-2.93;100.00;97683.15;107130;1277;22763;-67
2023/01/15 20:34:12;;;;;;;26.40;9.30;;;;;;;-2.91;100.00;97675.06;107218;1277;23987;-70